Aérodrome :
LOGIN :

S'inscrire | Disclaimer

   EN    FR    IT 

 










Légende :    VFR   VFR Marginal   IFR   IFR Intensif   IFR Très Intensif
Visi : 
Plafond : 
>= 8 km
>= 3000ft
5 à 8 km
1000 à 3000 ft
1500m à 5 km
500 à 1000 ft
800 à 1500m
200 à 500 ft
< 800m
< 200 ft
Symboles :   Orages  Brouillard  Fortes neiges  Fortes précipitations  Vent > 20 kt
SIGMETs :   Divers  Orages  Givrage  Turbulence  Onde Orograph.  Cendres Volcan.






- Altitude de l'aérodrome : 280 ft
- Code IATA : FAE


EKVG - Vagar

DERNIER METAR :
  • 131420Z AUTO 35005KT 9999 NCD 02/M02 Q1001

METARs EXPIRÉS :
  • 131350Z AUTO 32002KT 9999 FEW047/// 02/M02 Q1001
  • 131320Z AUTO 04009KT 9999 SCT051/// 03/M01 Q1001
  • 131250Z AUTO 33006KT 9999 NCD 03/M03 Q1000
  • 131220Z AUTO 35005KT 9999 NCD 03/M03 Q1000
  • 131150Z AUTO 35004KT 9999 NCD 03/M03 Q1000

TAF TAF EKVG
Valide du 13 à 15h jusqu'au 13 à 21h UTC


131401Z 1315/1321 01008KT 9999 FEW030
TEMPO 1315/1321 4000 SHRASN SCT020CB



MET'MAP, la Météo Aéronautique d'un coup d'oeil ! - Copyright ORBIFLY Décembre 2007 - Disclaimer

ORBIFLY MET'MAP TEAM :

Programmation & Développement : Alexandra Zaïnal
Conception & Développement : Baudouin d'Aumeries
Co-Programmation & Développement : Marc-Olivier Méhu
Soutien technique & logistique : Manuel Goepfert

Contact : metmap@orbifly.com




SOURCES & CREDITS :

   NOAA